Antonio B. Won Pat International Airport
PGUM : rendu visible

Aérodrome :











RETROUVEZ-NOUS SUR...

 
LOGIN :

S'inscrire | Disclaimer

   EN    FR    IT 

 









Légende :    VFR   VFR Marginal   IFR   IFR Intensif   IFR Très Intensif
Visi : 
Plafond : 
>= 8 km
>= 3000ft
5 à 8 km
1000 à 3000 ft
1500m à 5 km
500 à 1000 ft
800 à 1500m
200 à 500 ft
< 800m
< 200 ft
Symboles :   Orages  Brouillard  Fortes neiges  Fortes précipitations  Vent > 20 kt






- Altitude de l'aérodrome : 298 ft
- Code IATA : GUM


PGUM - Antonio B. Won Pat International

DERNIER METAR :
  • 131408Z 03005KT 3SM +RA BR FEW016 BKN036 OVC049 26/24 A2988 RMK AO2 P0006 T02560239

METARs EXPIRÉS :
  • 131401Z 03012KT 3SM +RA BR FEW016 BKN028 BKN038 26/24 A2988 RMK AO2 P0000 T02560239
  • 131354Z 03014KT 4SM -RA BR FEW015 SCT022 BKN035 26/24 A2989 RMK AO2 RAB47 SLP112 P0000 T02610244 403220250
  • 131254Z 05005KT 10SM CLR 27/24 A2988 RMK AO2 RAE1159 SLP111 P0000 T02670244
  • 131154Z 03006KT 10SM -RA BKN045 OVC060 27/24 A2989 RMK AO2 RAB49 SLP112 P0000 60000 T02670244 10306 20267 51008

TAF PGUM
Valide du 13 à 12h jusqu'au 14 à 18h UTC


131127Z 1312/1418 05008KT P6SM VCSH SCT020 SCT050



MET'MAP, la Météo Aéronautique d'un coup d'oeil ! - Copyright ORBIFLY Décembre 2007 - Disclaimer

ORBIFLY MET'MAP TEAM :

Programmation & Développement : Alexandra Zaïnal
Conception & Développement : Baudouin d'Aumeries
Co-Programmation & Développement : Marc-Olivier Méhu
Soutien technique & logistique : Manuel Goepfert

Contact : metmap@orbifly.com




SOURCES & CREDITS :

   NOAA       Earth
Advisory